createdAt,value
2023-04-18T00:00:49.544Z,6.03
2023-04-18T00:03:54.615Z,5.99
2023-04-18T00:06:58.605Z,5.95
2023-04-18T00:10:02.254Z,5.95
2023-04-18T00:13:05.928Z,5.98
2023-04-18T00:16:10.125Z,5.93
2023-04-18T00:19:15.621Z,5.96
2023-04-18T00:22:22.322Z,5.93
2023-04-18T00:25:26.116Z,5.94
2023-04-18T00:28:29.715Z,5.94
2023-04-18T00:31:33.286Z,5.94
2023-04-18T00:34:38.847Z,5.94
2023-04-18T00:37:42.433Z,5.95
2023-04-18T00:40:45.964Z,5.96
2023-04-18T00:43:49.471Z,5.95
2023-04-18T00:46:52.894Z,6.00
2023-04-18T00:49:58.056Z,5.98
2023-04-18T00:53:01.783Z,5.97
2023-04-18T00:56:06.251Z,5.90
2023-04-18T00:59:11.969Z,5.92
2023-04-18T01:02:15.951Z,5.82
2023-04-18T01:05:21.669Z,5.73
2023-04-18T01:08:27.849Z,5.71
2023-04-18T01:11:31.349Z,5.63
2023-04-18T01:14:35.010Z,5.59
2023-04-18T01:17:38.584Z,5.52
2023-04-18T01:20:47.353Z,5.49
2023-04-18T01:23:51.866Z,5.49
2023-04-18T01:26:57.284Z,5.43
2023-04-18T01:30:00.782Z,5.50
2023-04-18T01:33:06.491Z,5.48
2023-04-18T01:36:09.978Z,5.47
2023-04-18T01:39:13.805Z,5.45
2023-04-18T01:42:18.653Z,5.49
2023-04-18T01:45:22.595Z,5.43
2023-04-18T01:48:26.254Z,5.47
2023-04-18T01:51:29.823Z,5.48
2023-04-18T01:54:33.270Z,5.45
2023-04-18T01:57:38.130Z,5.46
2023-04-18T02:00:41.816Z,5.50
2023-04-18T02:03:45.619Z,5.49
2023-04-18T02:06:49.463Z,5.51
2023-04-18T02:09:52.953Z,5.47
2023-04-18T02:12:58.141Z,5.42
2023-04-18T02:16:02.682Z,5.43
2023-04-18T02:19:06.435Z,5.41
2023-04-18T02:22:10.161Z,5.41
2023-04-18T02:25:13.677Z,5.42
2023-04-18T02:28:18.668Z,5.36
2023-04-18T02:31:22.234Z,5.43
2023-04-18T02:34:25.854Z,5.38
2023-04-18T02:37:29.370Z,5.46
2023-04-18T02:40:32.860Z,5.39
2023-04-18T02:43:38.420Z,5.41
2023-04-18T02:46:41.867Z,5.36
2023-04-18T02:49:45.421Z,5.31
2023-04-18T02:52:48.969Z,5.31
2023-04-18T02:55:52.461Z,5.33
2023-04-18T02:58:57.358Z,5.29
2023-04-18T03:02:00.863Z,5.29
2023-04-18T03:05:04.832Z,5.29
2023-04-18T03:08:08.693Z,5.27
2023-04-18T03:11:12.137Z,5.27
2023-04-18T03:14:17.000Z,5.25
2023-04-18T03:17:20.859Z,5.23
2023-04-18T03:20:24.748Z,5.27
2023-04-18T03:23:28.238Z,5.16
2023-04-18T03:26:32.008Z,5.18
2023-04-18T03:29:36.898Z,5.18
2023-04-18T03:32:42.225Z,5.19
2023-04-18T03:35:45.914Z,5.21
2023-04-18T03:38:49.376Z,5.25
2023-04-18T03:41:53.402Z,5.24
2023-04-18T03:44:58.366Z,5.20
2023-04-18T03:48:01.922Z,5.13
2023-04-18T03:51:07.226Z,5.20
2023-04-18T03:54:10.808Z,5.14
2023-04-18T03:57:14.271Z,5.10
2023-04-18T04:00:19.802Z,5.08
2023-04-18T04:03:23.318Z,5.10
2023-04-18T04:06:27.567Z,5.08
2023-04-18T04:09:31.041Z,5.07
2023-04-18T04:12:34.625Z,5.06
2023-04-18T04:15:40.085Z,5.02
2023-04-18T04:18:43.651Z,5.06
2023-04-18T04:21:47.373Z,5.03
2023-04-18T04:24:51.716Z,5.05
2023-04-18T04:27:55.376Z,5.12
2023-04-18T04:31:00.539Z,5.10
2023-04-18T04:34:05.020Z,5.10
2023-04-18T04:37:09.218Z,5.10
2023-04-18T04:40:13.749Z,5.14
2023-04-18T04:43:17.351Z,5.13
2023-04-18T04:46:23.275Z,5.24
2023-04-18T04:49:26.902Z,5.22
2023-04-18T04:52:32.674Z,5.20
2023-04-18T04:55:36.325Z,5.28
2023-04-18T04:58:39.851Z,5.20
2023-04-18T05:01:44.916Z,5.20
2023-04-18T05:04:48.417Z,5.21
2023-04-18T05:07:52.180Z,5.25
2023-04-18T05:10:56.132Z,5.23
2023-04-18T05:13:59.704Z,5.26
2023-04-18T05:17:05.231Z,5.23
2023-04-18T05:20:10.308Z,5.22
2023-04-18T05:23:13.787Z,5.14
2023-04-18T05:26:17.599Z,5.14
2023-04-18T05:29:21.196Z,5.23
2023-04-18T05:32:27.345Z,5.12
2023-04-18T05:35:30.885Z,5.12
2023-04-18T05:38:34.394Z,5.23
2023-04-18T05:41:37.896Z,5.26
2023-04-18T05:44:41.481Z,5.14
2023-04-18T05:47:46.391Z,5.22
2023-04-18T05:50:49.963Z,5.26
2023-04-18T05:53:53.511Z,5.41
2023-04-18T05:56:57.322Z,5.91
2023-04-18T06:00:00.832Z,6.21
2023-04-18T06:03:07.876Z,6.42
2023-04-18T06:06:13.251Z,6.59
2023-04-18T06:09:16.776Z,6.77
2023-04-18T06:12:20.273Z,6.68
2023-04-18T06:15:23.767Z,6.81
2023-04-18T06:18:28.686Z,6.87
2023-04-18T06:21:32.373Z,6.60
2023-04-18T06:24:37.404Z,6.89
2023-04-18T06:27:41.057Z,7.26
2023-04-18T06:30:44.730Z,7.31
2023-04-18T06:33:49.649Z,7.42
2023-04-18T06:36:53.726Z,7.46
2023-04-18T06:39:57.265Z,7.24
2023-04-18T06:43:00.829Z,7.35
2023-04-18T06:46:06.799Z,7.50
2023-04-18T06:49:11.922Z,7.63
2023-04-18T06:52:15.417Z,7.70
2023-04-18T06:55:19.073Z,7.93
2023-04-18T06:58:24.077Z,7.96
2023-04-18T07:01:27.683Z,8.44
2023-04-18T07:04:32.576Z,8.31
2023-04-18T07:07:36.528Z,7.77
2023-04-18T07:10:40.074Z,8.19
2023-04-18T07:13:43.573Z,8.42
2023-04-18T07:16:47.592Z,8.34
2023-04-18T07:19:52.552Z,8.95
2023-04-18T07:22:57.129Z,8.89
2023-04-18T07:26:02.622Z,8.78
2023-04-18T07:29:06.431Z,8.91
2023-04-18T07:32:10.809Z,8.78
2023-04-18T07:35:15.761Z,8.94
2023-04-18T07:38:19.465Z,9.25
2023-04-18T07:41:23.054Z,9.78
2023-04-18T07:44:26.620Z,9.59
2023-04-18T07:47:31.280Z,9.89
2023-04-18T07:50:36.884Z,9.46
2023-04-18T07:53:41.112Z,9.90
2023-04-18T07:56:44.783Z,9.73
2023-04-18T07:59:48.321Z,10.09
2023-04-18T08:02:51.920Z,9.92
2023-04-18T08:05:57.336Z,9.95
2023-04-18T08:09:04.324Z,10.22
2023-04-18T08:12:08.423Z,9.49
2023-04-18T08:15:29.087Z,9.63
2023-04-18T08:18:32.659Z,9.77
2023-04-18T08:21:39.211Z,10.18
2023-04-18T08:24:57.270Z,10.28
2023-04-18T08:28:06.910Z,10.54
2023-04-18T08:31:14.996Z,10.78
2023-04-18T08:34:18.696Z,10.19
2023-04-18T08:37:23.732Z,10.05
2023-04-18T08:40:27.322Z,10.44
2023-04-18T08:43:31.486Z,10.16
2023-04-18T08:46:35.889Z,10.27
2023-04-18T08:49:39.957Z,10.58
2023-04-18T08:52:48.820Z,10.43
2023-04-18T08:55:56.265Z,10.38
2023-04-18T08:59:00.782Z,10.20
2023-04-18T09:02:06.841Z,10.30
2023-04-18T09:05:15.365Z,10.68
2023-04-18T09:08:26.500Z,11.63
2023-04-18T09:11:32.521Z,11.35
2023-04-18T09:14:37.630Z,11.49
2023-04-18T09:17:46.134Z,11.20
2023-04-18T09:20:49.896Z,11.03
2023-04-18T09:24:20.842Z,11.26
2023-04-18T09:27:25.698Z,11.56
2023-04-18T09:30:39.615Z,11.22
2023-04-18T09:33:56.766Z,10.97
2023-04-18T09:37:18.358Z,10.91
2023-04-18T09:40:24.866Z,11.13
2023-04-18T09:43:28.478Z,10.90
2023-04-18T09:46:33.201Z,10.81
2023-04-18T09:49:36.755Z,10.77
2023-04-18T09:52:42.408Z,11.01
2023-04-18T09:55:50.948Z,10.94
2023-04-18T09:59:02.083Z,10.80
2023-04-18T10:02:16.432Z,10.69
2023-04-18T10:05:24.437Z,11.06
2023-04-18T10:08:28.694Z,11.59
2023-04-18T10:11:34.451Z,11.79
2023-04-18T10:14:40.396Z,11.65
2023-04-18T10:18:02.865Z,11.48
2023-04-18T10:21:10.312Z,12.13
2023-04-18T10:24:49.562Z,11.66
2023-04-18T10:28:00.480Z,11.26
2023-04-18T10:31:05.631Z,11.26
2023-04-18T10:34:09.634Z,11.31
2023-04-18T10:37:14.004Z,10.74
2023-04-18T10:40:17.862Z,10.74
2023-04-18T10:43:22.835Z,10.83
2023-04-18T10:46:32.598Z,10.60
2023-04-18T10:49:38.199Z,10.61
2023-04-18T10:52:42.666Z,10.52
2023-04-18T10:55:55.807Z,10.58
2023-04-18T10:59:04.629Z,10.47
2023-04-18T11:02:25.629Z,10.36
2023-04-18T11:05:30.812Z,10.47
2023-04-18T11:08:34.238Z,10.46
2023-04-18T11:11:39.102Z,10.34
2023-04-18T11:14:45.736Z,10.68
2023-04-18T11:17:59.377Z,10.54
2023-04-18T11:21:03.852Z,10.27
2023-04-18T11:24:08.421Z,10.60
2023-04-18T11:27:13.825Z,10.42
2023-04-18T11:30:19.836Z,10.57
2023-04-18T11:33:24.864Z,10.56
2023-04-18T11:36:28.828Z,10.58
2023-04-18T11:39:37.204Z,10.59
2023-04-18T11:42:43.137Z,10.56
2023-04-18T11:45:55.163Z,10.67
2023-04-18T11:48:58.854Z,10.70
2023-04-18T11:52:11.751Z,10.80
2023-04-18T11:55:18.722Z,10.92
2023-04-18T11:58:33.174Z,11.06
2023-04-18T12:01:38.169Z,11.37
2023-04-18T12:04:53.635Z,11.49
2023-04-18T12:08:05.781Z,11.79
2023-04-18T12:11:09.389Z,11.16
2023-04-18T12:14:22.385Z,10.74
2023-04-18T12:17:29.160Z,11.52
2023-04-18T12:20:37.540Z,11.31
2023-04-18T12:23:42.898Z,11.67
2023-04-18T12:26:47.148Z,11.50
2023-04-18T12:29:51.248Z,11.28
2023-04-18T12:33:00.397Z,11.25
2023-04-18T12:36:06.174Z,11.66
2023-04-18T12:39:10.179Z,11.62
2023-04-18T12:42:13.845Z,11.21
2023-04-18T12:45:19.318Z,11.37
2023-04-18T12:48:24.378Z,11.37
2023-04-18T12:51:28.138Z,11.36
2023-04-18T12:54:31.614Z,11.27
2023-04-18T12:57:35.502Z,11.39
2023-04-18T13:00:39.210Z,11.36
2023-04-18T13:03:45.546Z,11.33
2023-04-18T13:06:52.444Z,11.03
2023-04-18T13:09:56.087Z,11.26
2023-04-18T13:12:59.726Z,11.42
2023-04-18T13:16:03.398Z,11.18
2023-04-18T13:19:08.522Z,11.23
2023-04-18T13:22:12.097Z,11.35
2023-04-18T13:25:17.677Z,11.11
2023-04-18T13:28:21.360Z,11.03
2023-04-18T13:31:25.299Z,10.94
2023-04-18T13:34:30.594Z,11.12
2023-04-18T13:37:34.059Z,11.41
2023-04-18T13:40:38.832Z,11.13
2023-04-18T13:43:42.532Z,11.15
2023-04-18T13:46:46.149Z,11.44
2023-04-18T13:49:51.652Z,11.53
2023-04-18T13:52:55.162Z,11.13
2023-04-18T13:55:59.179Z,11.37
2023-04-18T13:59:02.685Z,11.01
2023-04-18T14:02:06.422Z,11.35
2023-04-18T14:05:12.088Z,11.34
2023-04-18T14:08:15.802Z,11.28
2023-04-18T14:11:19.263Z,11.21
2023-04-18T14:14:24.641Z,11.39
2023-04-18T14:17:28.778Z,11.42
2023-04-18T14:20:35.278Z,11.27
2023-04-18T14:23:38.786Z,11.25
2023-04-18T14:26:42.298Z,11.54
2023-04-18T14:29:45.828Z,11.63
2023-04-18T14:32:49.387Z,11.33
2023-04-18T14:35:54.300Z,11.57
2023-04-18T14:38:57.952Z,11.72
2023-04-18T14:42:01.538Z,11.66
2023-04-18T14:45:05.905Z,11.53
2023-04-18T14:48:10.693Z,11.36
2023-04-18T14:51:16.931Z,11.73
2023-04-18T14:54:20.564Z,12.15
2023-04-18T14:57:24.085Z,12.04
2023-04-18T15:00:28.210Z,12.18
2023-04-18T15:03:31.982Z,12.12
2023-04-18T15:06:37.451Z,11.71
2023-04-18T15:09:41.118Z,11.63
2023-04-18T15:12:46.769Z,12.07
2023-04-18T15:15:54.553Z,12.24
2023-04-18T15:18:58.188Z,12.09
2023-04-18T15:22:03.544Z,12.08
2023-04-18T15:25:08.698Z,11.83
2023-04-18T15:28:13.543Z,12.16
2023-04-18T15:31:17.981Z,12.25
2023-04-18T15:34:21.587Z,12.15
2023-04-18T15:37:26.789Z,11.86
2023-04-18T15:40:30.460Z,11.69
2023-04-18T15:43:34.216Z,11.77
2023-04-18T15:46:38.429Z,11.82
2023-04-18T15:49:42.125Z,12.16
2023-04-18T15:52:47.099Z,12.12
2023-04-18T15:55:50.938Z,12.07
2023-04-18T15:58:57.507Z,11.71
2023-04-18T16:02:01.307Z,11.74
2023-04-18T16:05:05.343Z,11.60
2023-04-18T16:08:10.881Z,11.82
2023-04-18T16:11:14.400Z,11.86
2023-04-18T16:14:18.056Z,11.73
2023-04-18T16:17:21.525Z,11.64
2023-04-18T16:20:27.138Z,11.63
2023-04-18T16:23:33.180Z,11.44
2023-04-18T16:26:39.543Z,11.54
2023-04-18T16:29:44.556Z,11.52
2023-04-18T16:32:48.683Z,11.48
2023-04-18T16:35:52.330Z,11.42
2023-04-18T16:38:57.234Z,11.35
2023-04-18T16:42:01.179Z,11.27
2023-04-18T16:45:05.730Z,11.27
2023-04-18T16:48:09.331Z,11.33
2023-04-18T16:51:13.209Z,11.36
2023-04-18T16:54:18.161Z,11.33
2023-04-18T16:57:21.872Z,11.31
2023-04-18T17:00:25.621Z,11.28
2023-04-18T17:03:30.529Z,11.29
2023-04-18T17:06:34.431Z,11.19
2023-04-18T17:09:39.387Z,11.24
2023-04-18T17:12:43.012Z,11.27
2023-04-18T17:15:46.942Z,11.23
2023-04-18T17:18:50.460Z,11.25
2023-04-18T17:21:54.112Z,11.14
2023-04-18T17:24:59.125Z,11.10
2023-04-18T17:28:03.599Z,10.96
2023-04-18T17:31:07.595Z,10.90
2023-04-18T17:34:11.438Z,10.88
2023-04-18T17:37:17.056Z,10.91
2023-04-18T17:40:22.305Z,10.83
2023-04-18T17:43:26.356Z,10.78
2023-04-18T17:46:30.328Z,10.81
2023-04-18T17:49:35.097Z,10.74
2023-04-18T17:52:38.629Z,10.66
2023-04-18T17:55:43.513Z,10.62
2023-04-18T17:58:47.370Z,10.65
2023-04-18T18:01:51.173Z,10.58
2023-04-18T18:04:54.982Z,10.58
2023-04-18T18:07:58.663Z,10.55
2023-04-18T18:11:06.147Z,10.45
2023-04-18T18:14:09.886Z,10.45
2023-04-18T18:17:13.583Z,10.37
2023-04-18T18:20:18.009Z,10.35
2023-04-18T18:23:22.157Z,10.31
2023-04-18T18:26:27.287Z,10.28
2023-04-18T18:29:30.952Z,10.27
2023-04-18T18:32:34.485Z,10.26
2023-04-18T18:35:38.320Z,10.27
2023-04-18T18:38:42.652Z,10.30
2023-04-18T18:41:47.498Z,10.27
2023-04-18T18:44:51.850Z,10.19
2023-04-18T18:47:55.913Z,10.16
2023-04-18T18:51:00.284Z,10.14
2023-04-18T18:54:04.159Z,10.15
2023-04-18T18:57:09.288Z,10.15
2023-04-18T19:00:14.330Z,10.18
2023-04-18T19:03:19.342Z,10.18
2023-04-18T19:06:24.037Z,10.16
2023-04-18T19:09:27.560Z,10.09
2023-04-18T19:12:32.529Z,10.09
2023-04-18T19:15:36.548Z,10.03
2023-04-18T19:18:41.515Z,9.99
2023-04-18T19:21:46.043Z,9.96
2023-04-18T19:24:49.656Z,9.87
2023-04-18T19:27:54.744Z,9.85
2023-04-18T19:30:58.407Z,9.79
2023-04-18T19:34:02.773Z,9.72
2023-04-18T19:37:06.385Z,9.65
2023-04-18T19:40:11.956Z,9.60
2023-04-18T19:43:17.260Z,9.53
2023-04-18T19:46:21.359Z,9.50
2023-04-18T19:49:24.887Z,9.46
2023-04-18T19:52:28.442Z,9.36
2023-04-18T19:55:32.364Z,9.34
2023-04-18T19:58:39.781Z,9.25
2023-04-18T20:01:43.314Z,9.17
2023-04-18T20:04:47.021Z,9.10
2023-04-18T20:07:51.148Z,9.10
2023-04-18T20:10:54.625Z,9.04
2023-04-18T20:13:59.564Z,8.96
2023-04-18T20:17:03.099Z,8.91
2023-04-18T20:20:10.981Z,8.90
2023-04-18T20:23:14.540Z,8.81
2023-04-18T20:26:18.185Z,8.74
2023-04-18T20:29:23.187Z,8.66
2023-04-18T20:32:26.910Z,8.59
2023-04-18T20:35:31.579Z,8.52
2023-04-18T20:38:36.887Z,8.44
2023-04-18T20:41:46.681Z,8.39
2023-04-18T20:44:51.578Z,8.35
2023-04-18T20:47:55.113Z,8.30
2023-04-18T20:50:58.598Z,8.26
2023-04-18T20:54:02.208Z,8.19
2023-04-18T20:57:05.797Z,8.12
2023-04-18T21:00:14.238Z,8.08
2023-04-18T21:03:18.249Z,7.98
2023-04-18T21:06:22.164Z,7.97
2023-04-18T21:09:25.684Z,7.94
2023-04-18T21:12:29.373Z,7.90
2023-04-18T21:15:35.615Z,7.89
2023-04-18T21:18:39.264Z,7.86
2023-04-18T21:21:42.781Z,7.81
2023-04-18T21:24:46.959Z,7.79
2023-04-18T21:27:51.339Z,7.77
2023-04-18T21:30:56.356Z,7.73
2023-04-18T21:34:01.883Z,7.70
2023-04-18T21:37:05.568Z,7.68
2023-04-18T21:40:10.806Z,7.68
2023-04-18T21:43:14.517Z,7.61
2023-04-18T21:46:20.090Z,7.65
2023-04-18T21:49:25.658Z,7.53
2023-04-18T21:52:29.317Z,7.51
2023-04-18T21:55:32.756Z,7.45
2023-04-18T21:58:36.946Z,7.45
2023-04-18T22:01:41.839Z,7.43
2023-04-18T22:04:45.364Z,7.43
2023-04-18T22:07:57.348Z,7.44
2023-04-18T22:11:01.809Z,7.33
2023-04-18T22:14:05.874Z,7.32
2023-04-18T22:17:10.749Z,7.28
2023-04-18T22:20:14.782Z,7.26
2023-04-18T22:23:18.244Z,7.22
2023-04-18T22:26:21.779Z,7.20
2023-04-18T22:29:25.326Z,7.13
2023-04-18T22:32:30.284Z,7.09
2023-04-18T22:35:33.995Z,7.05
2023-04-18T22:38:37.480Z,6.98
2023-04-18T22:41:40.979Z,6.98
2023-04-18T22:44:44.448Z,6.90
2023-04-18T22:47:49.366Z,6.87
2023-04-18T22:50:52.941Z,6.82
2023-04-18T22:53:56.723Z,6.80
2023-04-18T22:57:02.190Z,6.76
2023-04-18T23:00:07.558Z,6.70
2023-04-18T23:03:12.645Z,6.72
2023-04-18T23:06:16.214Z,6.64
2023-04-18T23:09:19.695Z,6.60
2023-04-18T23:12:23.208Z,6.56
2023-04-18T23:15:27.017Z,6.51
2023-04-18T23:18:32.224Z,6.48
2023-04-18T23:21:35.983Z,6.47
2023-04-18T23:24:39.561Z,6.43
2023-04-18T23:27:43.203Z,6.39
2023-04-18T23:30:48.130Z,6.33
2023-04-18T23:33:53.069Z,6.25
2023-04-18T23:36:56.590Z,6.26
2023-04-18T23:40:01.078Z,6.17
2023-04-18T23:43:04.549Z,6.19
2023-04-18T23:46:08.248Z,6.11
2023-04-18T23:49:13.144Z,6.07
2023-04-18T23:52:16.816Z,5.98
2023-04-18T23:55:20.337Z,5.96
2023-04-18T23:58:23.919Z,5.86
